Garden City, IA (50102)

9:04 PM CDT on April 21, 2015 (GMT -0500)
Christytown | | Change Station
CLOSE
Current Station
Personal Weather Station
Location: Story City, IA
Elevation: 1030 ft
Nearby Weather Stations

Elev 1030 ft 42.22 °N, 93.58 °W | Updated 11 seconds ago

Clear
Clear
48.6 °F
Feels Like 44 °F
N
10.0
Wind Variable Wind from WNW
Gusts 10.0 mph

Today
High -- | Low -- °F
--% Chance of Precip.
Yesterday
High -- | Low -- °F
Precip. -- in
6:23 AM 8:01 PM
Waxing Crescent, 14% visible
Pressure 29.80 in
Visibility 10.0 miles
Clouds Clear
Windchill 44 °F
Dew Point 28 °F
Humidity 45%
Rainfall 0.00 in
Snow Depth Not available.
UV 0 out of 12
Pollen 11.30 out of 12
Air Quality Not available.
Flu Activity Local Activity
METAR KIFA 220155Z AUTO 32016G23KT 10SM CLR 04/M03 A2980 RMK AO2 T00401027

More Conditions Fewer Conditions

Pressure 29.80 in
Visibility 10.0 miles
Clouds Clear
Windchill 44 °F
Dew Point 28 °F
Humidity 45%
Rainfall 0.00 in
Snow Depth Not available.
UV 0 out of 12
Pollen 11.30 out of 12
Air Quality Not available.
Flu Activity Local Activity
METAR KIFA 220155Z AUTO 32016G23KT 10SM CLR 04/M03 A2980 RMK AO2 T00401027

More Conditions Fewer Conditions

10-Day Weather Forecast

Almanac

Astronomy

Apr. 21, 2015 Rise Set
Actual Time
Civil Twilight
Nautical Twilight
Astronomical Twilight
Moon
Length of Visible Light
Length of Day
Tomorrow will be .
, % of the Moon is Illuminated

Today's Extremes

State Highs State Lows

Community

WunderPhotos

Upload Photos

1,815,628 photos uploaded!

WunderBlogs® & News

Nearby

Air Quality

  Air Quality AQ Index Pollutant
Not available.

Snow Depth

Station Depth Elevation

Earthquake Activity

City Distance Mag. Time & Date
Minimum magnitude displayed is 2.5.

Coastal Water Temperatures

Place Temperature

Stations

Nearby Weather Stations

Station Location Temp. Windchill Dew Point Humidity Wind Precip. Elev Updated Type